Check out our new BloomSky Weather System.

Active alerts

Houston, TX
  Details for Houston, TX River Flood Warning  +1 additional alert
Fort Bend, TX
  Details for Fort Bend, TX River Flood Warning  +1 additional alert


Thunder radar  blitzortung!


Rain radar more information rain snow radar


Visit our other weather sites:

Template documentation
and downloads

And another site



Weather Underground History page Text

Daily Summary for January 10, 2018 Units:  Metric    English   Both
« Previous Day
Next Day »
Daily Weekly Monthly Yearly Custom
  High: Low: Average:
Temperature: -17.8 °C 11.1 °C 13.8 °C
Dew Point: -17.8 °C 10.5 °C 13.2 °C
Humidity: Humidity % 91 % 94 %
Wind Speed: 0 km/h 0 km/h 2.7 km/h
Wind Gust: 0 km/h - -
Wind:- - SE
Pressure: 0 hPa 1008.4 hPa -
Precipitation: 0 mm    
Historical Graphs
 
 
Tabular Data for January 10, 2018
Time Temperature Dew Point Pressure Wind Wind Speed Wind Gust Humidity Rainfall Rate (Hourly)
-17.8 °C -17.8 °C 0 hPa Calm     Humidity % 0 mm
02:32 11.1 °C 10.5 °C 1016.8 hPa SSW 4.8 km/h 16.1 km/h 96 % 0 mm
07:00 11.1 °C 10.8 °C 1016.1 hPa Calm   1.6 km/h 98 % 0 mm
07:20 11.1 °C 10.8 °C 1016.1 hPa Calm   1.6 km/h 98 % 0 mm
07:25 11.1 °C 10.8 °C 1016.1 hPa Calm   1.6 km/h 98 % 0 mm
07:32 11.2 °C 10.9 °C 1016.1 hPa Calm   1.6 km/h 98 % 0 mm
07:52 11.3 °C 11 °C 1016.1 hPa Calm   3.2 km/h 98 % 0 mm
08:01 11.3 °C 11 °C 1016.1 hPa Calm   3.2 km/h 98 % 0 mm
08:22 11.5 °C 11.2 °C 1016.1 hPa ESE 1.6 km/h 4.8 km/h 98 % 0 mm
08:45 11.6 °C 11.3 °C 1016.5 hPa NE 1.6 km/h 4.8 km/h 98 % 0 mm
08:50 11.6 °C 11.3 °C 1016.5 hPa Calm   3.2 km/h 98 % 0 mm
08:58 11.7 °C 11.4 °C 1016.5 hPa Calm   3.2 km/h 98 % 0 mm
09:14 11.8 °C 11.5 °C 1016.5 hPa Calm   3.2 km/h 98 % 0 mm
09:23 11.9 °C 11.6 °C 1016.5 hPa Calm   4.8 km/h 98 % 0 mm
09:30 11.9 °C 11.6 °C 1016.5 hPa Calm   4.8 km/h 98 % 0 mm
09:37 12.1 °C 11.8 °C 1016.5 hPa ESE 1.6 km/h 4.8 km/h 98 % 0 mm
09:50 12.1 °C 11.8 °C 1016.5 hPa Calm   8 km/h 98 % 0 mm
09:57 12.3 °C 12 °C 1016.5 hPa East 1.6 km/h 4.8 km/h 98 % 0 mm
10:21 12.6 °C 12.3 °C 1016.1 hPa SE 3.2 km/h 6.4 km/h 98 % 0 mm
10:32 12.7 °C 12.4 °C 1016.1 hPa Calm   6.4 km/h 98 % 0 mm
10:42 12.9 °C 12.6 °C 1016.1 hPa East 3.2 km/h 4.8 km/h 98 % 0 mm
10:49 13.2 °C 12.9 °C 1015.8 hPa Calm   4.8 km/h 98 % 0 mm
10:57 13.3 °C 12.8 °C 1015.8 hPa Calm   4.8 km/h 97 % 0 mm
11:05 13.6 °C 13.1 °C 1015.8 hPa South 1.6 km/h 4.8 km/h 97 % 0 mm
11:10 13.9 °C 13.4 °C 1015.8 hPa ENE 3.2 km/h 3.2 km/h 97 % 0 mm
11:17 13.9 °C 13.3 °C 1015.5 hPa SE 3.2 km/h 3.2 km/h 96 % 0 mm
11:25 14 °C 13.4 °C 1015.5 hPa Calm   4.8 km/h 96 % 0 mm
11:33 14.2 °C 13.4 °C 1015.1 hPa Calm   4.8 km/h 95 % 0 mm
11:40 14.5 °C 13.7 °C 1015.1 hPa Calm   4.8 km/h 95 % 0 mm
11:46 14.7 °C 13.7 °C 1015.1 hPa Calm   4.8 km/h 94 % 0 mm
11:54 15 °C 13.9 °C 1014.8 hPa SE 3.2 km/h 4.8 km/h 93 % 0 mm
11:59 15 °C 13.5 °C 1014.8 hPa SE 8 km/h 8 km/h 91 % 0 mm
12:04 15.1 °C 13.6 °C 1014.8 hPa ESE 3.2 km/h 8 km/h 91 % 0 mm
18:00 15.6 °C 14.1 °C 1009 hPa SE 9.7 km/h 16.1 km/h 91 % 0 mm
18:06 15.5 °C 14.2 °C 1008.7 hPa SE 4.8 km/h 17.7 km/h 92 % 0 mm
18:15 15.3 °C 14 °C 1008.4 hPa SSE 6.4 km/h 16.1 km/h 92 % 0 mm
18:21 15.3 °C 14 °C 1008.7 hPa SE 6.4 km/h 14.5 km/h 92 % 0 mm
18:32 15.3 °C 14.2 °C 1008.7 hPa ESE 1.6 km/h 16.1 km/h 93 % 0 mm
18:42 15.4 °C 14.3 °C 1008.7 hPa SSE 3.2 km/h 17.7 km/h 93 % 0 mm
18:49 15.3 °C 14.2 °C 1008.7 hPa ESE 12.9 km/h 17.7 km/h 93 % 0 mm
18:55 15.3 °C 14.3 °C 1008.7 hPa SE 11.3 km/h 17.7 km/h 94 % 0 mm
19:02 15.3 °C 14.3 °C 1009 hPa SSE 9.7 km/h 17.7 km/h 94 % 0 mm
19:32 15.6 °C 14.8 °C 1009.4 hPa SE 9.7 km/h 17.7 km/h 95 % 0 mm
19:37 15.6 °C 14.8 °C 1009.4 hPa ESE 8 km/h 17.7 km/h 95 % 0 mm
19:49 15.7 °C 14.9 °C 1009 hPa East 11.3 km/h 12.9 km/h 95 % 0 mm
19:54 15.7 °C 14.9 °C 1009.4 hPa ESE 4.8 km/h 12.9 km/h 95 % 0 mm
19:59 15.7 °C 14.9 °C 1009.4 hPa SE 1.6 km/h 17.7 km/h 95 % 0 mm
20:07 15.8 °C 15 °C 1009.7 hPa SSE 4.8 km/h 17.7 km/h 95 % 0 mm
20:21 15.8 °C 15 °C 1009.4 hPa SSW 6.4 km/h 8 km/h 95 % 0 mm
20:36 15.8 °C 15 °C 1009.4 hPa SE 1.6 km/h 11.3 km/h 95 % 0 mm
20:42 15.8 °C 15 °C 1009.4 hPa SE 4.8 km/h 8 km/h 95 % 0 mm
20:47 15.8 °C 15 °C 1009 hPa South 1.6 km/h 9.7 km/h 95 % 0 mm
20:56 15.8 °C 15 °C 1009 hPa ESE 3.2 km/h 11.3 km/h 95 % 0 mm
21:13 15.8 °C 15 °C 1009 hPa SE 3.2 km/h 11.3 km/h 95 % 0 mm
21:28 15.9 °C 15.3 °C 1008.7 hPa SE 4.8 km/h 12.9 km/h 96 % 0 mm
21:41 15.9 °C 15.3 °C 1009 hPa South 3.2 km/h 16.1 km/h 96 % 0 mm
21:46 15.9 °C 15.3 °C 1009 hPa ESE 4.8 km/h 16.1 km/h 96 % 0 mm
22:02 15.9 °C 15.1 °C 1009.4 hPa South 3.2 km/h 9.7 km/h 95 % 0 mm
22:11 15.9 °C 15.1 °C 1009.4 hPa SSE 1.6 km/h 9.7 km/h 95 % 0 mm
22:17 15.9 °C 15.1 °C 1009.4 hPa Calm   6.4 km/h 95 % 0 mm
22:23 15.9 °C 15.1 °C 1009.7 hPa Calm   4.8 km/h 95 % 0 mm
22:51 15.8 °C 15 °C 1009.7 hPa Calm   3.2 km/h 95 % 0 mm
23:08 15.8 °C 15 °C 1009.7 hPa ESE 1.6 km/h 3.2 km/h 95 % 0 mm
23:13 15.9 °C 15.1 °C 1009.4 hPa ESE 1.6 km/h 3.2 km/h 95 % 0 mm
23:21 15.8 °C 15 °C 1009 hPa SE 1.6 km/h 4.8 km/h 95 % 0 mm
23:28 15.8 °C 15 °C 1009.4 hPa Calm   4.8 km/h 95 % 0 mm
23:33 15.8 °C 15 °C 1009 hPa Calm   4.8 km/h 95 % 0 mm
23:38 15.8 °C 15 °C 1009 hPa ESE 1.6 km/h 3.2 km/h 95 % 0 mm
23:43 15.8 °C 15 °C 1008.7 hPa Calm   3.2 km/h 95 % 0 mm
23:51 15.8 °C 15 °C 1008.7 hPa SE 1.6 km/h 3.2 km/h 95 % 0 mm
23:57 15.8 °C 15 °C 1008.7 hPa Calm   4.8 km/h 95 % 0 mm
Spring, Texas: Villages of Bridgestone
Compliments of Weather Underground - 1.75 mb

Script developed by  Jim McMurry - jmcmurry@mwt.net Adapted for the template by  Wim van der Kuil - Leuven-Template.eu

You find our weather info also at:

UK Metoffice

WeatherCloud

Weather Underground

Mid-South Weather Network

AWEKAS

Citizen Weather Observer Program (CWOP)

HAMweather, WeatherForYou, PWS Weather

Equipment we use:

Weather-station
Davis Vantage Vue

Weather-program
Meteohub

Weather-server
Debian 7.9 x86 (Guest)

Provider
DreamHost

Davis Vantage Vue

Meteohub

Debian 7.9 x86 (Guest)

DreamHost